sensor_id;sensor_type;location;lat;lon;timestamp;pressure;altitude;pressure_sealevel;temperature;humidity
29359;BME280;16347;53.232;6.556;2023-03-25T00:01:16;99832.28;;;11.32;65.08
29359;BME280;16347;53.232;6.556;2023-03-25T00:03:44;99822.25;;;11.18;65.34
29359;BME280;16347;53.232;6.556;2023-03-25T00:06:18;99826.38;;;11.29;65.39
29359;BME280;16347;53.232;6.556;2023-03-25T00:08:46;99836.03;;;11.46;64.47
29359;BME280;16347;53.232;6.556;2023-03-25T00:11:15;99818.78;;;11.39;65.31
29359;BME280;16347;53.232;6.556;2023-03-25T00:13:43;99830.88;;;11.51;64.38
29359;BME280;16347;53.232;6.556;2023-03-25T00:16:12;99837.09;;;11.30;64.62
29359;BME280;16347;53.232;6.556;2023-03-25T00:18:41;99822.81;;;11.28;65.04
29359;BME280;16347;53.232;6.556;2023-03-25T00:21:09;99822.53;;;11.23;65.56
29359;BME280;16347;53.232;6.556;2023-03-25T00:23:40;99838.69;;;11.40;64.82
29359;BME280;16347;53.232;6.556;2023-03-25T00:26:09;99825.28;;;11.38;65.00
29359;BME280;16347;53.232;6.556;2023-03-25T00:28:38;99828.91;;;11.45;64.67
29359;BME280;16347;53.232;6.556;2023-03-25T00:31:09;99821.22;;;11.19;65.83
29359;BME280;16347;53.232;6.556;2023-03-25T00:33:38;99835.75;;;11.12;66.77
29359;BME280;16347;53.232;6.556;2023-03-25T00:36:10;99834.84;;;11.19;67.26
29359;BME280;16347;53.232;6.556;2023-03-25T00:38:42;99826.88;;;11.18;67.44
29359;BME280;16347;53.232;6.556;2023-03-25T00:41:13;99822.34;;;11.25;67.60
29359;BME280;16347;53.232;6.556;2023-03-25T00:43:44;99821.41;;;11.03;68.22
29359;BME280;16347;53.232;6.556;2023-03-25T00:46:13;99849.94;;;11.22;67.93
29359;BME280;16347;53.232;6.556;2023-03-25T00:48:42;99840.09;;;11.21;67.17
29359;BME280;16347;53.232;6.556;2023-03-25T00:51:10;99822.53;;;11.23;67.25
29359;BME280;16347;53.232;6.556;2023-03-25T00:53:41;99825.56;;;11.14;68.00
29359;BME280;16347;53.232;6.556;2023-03-25T00:56:09;99815.59;;;11.06;67.92
29359;BME280;16347;53.232;6.556;2023-03-25T00:58:38;99831.78;;;10.85;68.43
29359;BME280;16347;53.232;6.556;2023-03-25T01:01:08;99816.72;;;11.12;68.53
29359;BME280;16347;53.232;6.556;2023-03-25T01:03:39;99842.69;;;11.00;68.81
29359;BME280;16347;53.232;6.556;2023-03-25T01:06:10;99839.22;;;11.06;69.24
29359;BME280;16347;53.232;6.556;2023-03-25T01:08:40;99832.19;;;10.97;69.71
29359;BME280;16347;53.232;6.556;2023-03-25T01:11:18;99824.50;;;11.00;69.81
29359;BME280;16347;53.232;6.556;2023-03-25T01:13:49;99832.63;;;10.71;70.64
29359;BME280;16347;53.232;6.556;2023-03-25T01:16:18;99820.16;;;10.76;71.40
29359;BME280;16347;53.232;6.556;2023-03-25T01:18:46;99815.31;;;10.87;72.06
29359;BME280;16347;53.232;6.556;2023-03-25T01:21:14;99834.28;;;10.57;72.39
29359;BME280;16347;53.232;6.556;2023-03-25T01:23:43;99820.50;;;10.59;73.08
29359;BME280;16347;53.232;6.556;2023-03-25T01:26:11;99833.22;;;10.58;72.65
29359;BME280;16347;53.232;6.556;2023-03-25T01:28:42;99821.97;;;10.84;72.26
29359;BME280;16347;53.232;6.556;2023-03-25T01:31:14;99817.53;;;10.83;71.60
29359;BME280;16347;53.232;6.556;2023-03-25T01:33:42;99828.50;;;10.75;72.25
29359;BME280;16347;53.232;6.556;2023-03-25T01:36:11;99822.19;;;10.60;72.58
29359;BME280;16347;53.232;6.556;2023-03-25T01:38:40;99819.69;;;10.73;72.68
29359;BME280;16347;53.232;6.556;2023-03-25T01:41:09;99826.56;;;10.84;73.08
29359;BME280;16347;53.232;6.556;2023-03-25T01:43:37;99810.56;;;10.66;73.26
29359;BME280;16347;53.232;6.556;2023-03-25T01:46:10;99810.34;;;10.53;73.81
29359;BME280;16347;53.232;6.556;2023-03-25T01:48:43;99811.13;;;10.61;73.84
29359;BME280;16347;53.232;6.556;2023-03-25T01:51:15;99816.59;;;10.76;73.48
29359;BME280;16347;53.232;6.556;2023-03-25T01:53:45;99801.41;;;10.67;73.88
29359;BME280;16347;53.232;6.556;2023-03-25T01:56:18;99818.00;;;10.72;74.23
29359;BME280;16347;53.232;6.556;2023-03-25T01:58:48;99806.03;;;10.81;73.06
29359;BME280;16347;53.232;6.556;2023-03-25T02:01:20;99791.16;;;10.69;73.48
29359;BME280;16347;53.232;6.556;2023-03-25T02:03:50;99807.47;;;10.69;74.08
29359;BME280;16347;53.232;6.556;2023-03-25T02:06:21;99796.78;;;10.53;74.56
29359;BME280;16347;53.232;6.556;2023-03-25T02:08:55;99800.13;;;10.40;75.85
29359;BME280;16347;53.232;6.556;2023-03-25T02:11:25;99792.06;;;10.47;75.75
29359;BME280;16347;53.232;6.556;2023-03-25T02:13:56;99790.28;;;10.16;76.47
29359;BME280;16347;53.232;6.556;2023-03-25T02:16:32;99789.72;;;10.21;76.17
29359;BME280;16347;53.232;6.556;2023-03-25T02:22:21;99796.19;;;10.43;75.75
29359;BME280;16347;53.232;6.556;2023-03-25T02:27:56;99790.91;;;10.41;74.22
29359;BME280;16347;53.232;6.556;2023-03-25T02:30:45;99793.59;;;10.26;74.79
29359;BME280;16347;53.232;6.556;2023-03-25T02:33:36;99790.91;;;10.41;74.91
29359;BME280;16347;53.232;6.556;2023-03-25T02:36:51;99795.28;;;10.50;74.60
29359;BME280;16347;53.232;6.556;2023-03-25T02:39:31;99795.38;;;10.11;74.88
29359;BME280;16347;53.232;6.556;2023-03-25T02:42:03;99799.97;;;10.11;74.94
29359;BME280;16347;53.232;6.556;2023-03-25T02:44:38;99785.81;;;10.23;74.56
29359;BME280;16347;53.232;6.556;2023-03-25T02:47:13;99790.63;;;10.36;74.12
29359;BME280;16347;53.232;6.556;2023-03-25T02:49:45;99772.19;;;10.46;73.47
29359;BME280;16347;53.232;6.556;2023-03-25T02:52:17;99778.06;;;10.35;73.18
29359;BME280;16347;53.232;6.556;2023-03-25T02:54:50;99792.06;;;10.47;72.72
29359;BME280;16347;53.232;6.556;2023-03-25T02:57:25;99786.06;;;10.51;72.32
29359;BME280;16347;53.232;6.556;2023-03-25T02:59:56;99793.75;;;10.48;72.08
29359;BME280;16347;53.232;6.556;2023-03-25T03:02:29;99784.47;;;10.42;72.24
29359;BME280;16347;53.232;6.556;2023-03-25T03:04:58;99799.56;;;10.45;72.00
29359;BME280;16347;53.232;6.556;2023-03-25T03:07:28;99795.00;;;10.22;72.55
29359;BME280;16347;53.232;6.556;2023-03-25T03:10:05;99776.50;;;10.41;72.13
29359;BME280;16347;53.232;6.556;2023-03-25T03:12:50;99784.50;;;10.57;72.21
29359;BME280;16347;53.232;6.556;2023-03-25T03:15:34;99778.84;;;10.44;71.89
29359;BME280;16347;53.232;6.556;2023-03-25T03:18:13;99779.88;;;10.43;72.06
29359;BME280;16347;53.232;6.556;2023-03-25T03:20:51;99793.03;;;10.54;71.61
29359;BME280;16347;53.232;6.556;2023-03-25T03:23:26;99775.84;;;10.39;71.14
29359;BME280;16347;53.232;6.556;2023-03-25T03:26:02;99773.22;;;10.45;71.01
29359;BME280;16347;53.232;6.556;2023-03-25T03:28:37;99766.03;;;10.52;70.78
29359;BME280;16347;53.232;6.556;2023-03-25T03:31:14;99766.50;;;10.56;70.90
29359;BME280;16347;53.232;6.556;2023-03-25T03:34:08;99776.03;;;10.52;71.06
29359;BME280;16347;53.232;6.556;2023-03-25T03:36:43;99764.16;;;10.53;71.27
29359;BME280;16347;53.232;6.556;2023-03-25T03:39:17;99757.44;;;10.78;70.19
29359;BME280;16347;53.232;6.556;2023-03-25T03:41:50;99758.66;;;10.75;69.98
29359;BME280;16347;53.232;6.556;2023-03-25T03:44:23;99773.75;;;10.78;69.62
29359;BME280;16347;53.232;6.556;2023-03-25T03:46:57;99764.56;;;10.79;69.78
29359;BME280;16347;53.232;6.556;2023-03-25T03:49:28;99763.16;;;10.83;69.78
29359;BME280;16347;53.232;6.556;2023-03-25T03:52:03;99769.03;;;10.72;70.11
29359;BME280;16347;53.232;6.556;2023-03-25T03:54:37;99775.03;;;10.53;70.78
29359;BME280;16347;53.232;6.556;2023-03-25T03:57:14;99770.19;;;10.77;70.67
29359;BME280;16347;53.232;6.556;2023-03-25T03:59:50;99777.97;;;10.80;70.35
29359;BME280;16347;53.232;6.556;2023-03-25T04:02:24;99769.78;;;10.66;71.03
29359;BME280;16347;53.232;6.556;2023-03-25T04:04:54;99770.91;;;10.57;71.89
29359;BME280;16347;53.232;6.556;2023-03-25T04:07:31;99774.81;;;10.40;72.44
29359;BME280;16347;53.232;6.556;2023-03-25T04:10:10;99769.28;;;10.33;73.56
29359;BME280;16347;53.232;6.556;2023-03-25T04:12:45;99774.50;;;10.35;74.07
29359;BME280;16347;53.232;6.556;2023-03-25T04:15:16;99774.88;;;10.32;74.42
29359;BME280;16347;53.232;6.556;2023-03-25T04:17:44;99772.53;;;10.28;74.13
29359;BME280;16347;53.232;6.556;2023-03-25T04:20:15;99774.91;;;10.01;74.98
29359;BME280;16347;53.232;6.556;2023-03-25T04:22:49;99784.19;;;10.14;74.74
29359;BME280;16347;53.232;6.556;2023-03-25T04:25:18;99783.59;;;10.27;74.35
29359;BME280;16347;53.232;6.556;2023-03-25T04:27:52;99767.09;;;10.28;74.55
29359;BME280;16347;53.232;6.556;2023-03-25T04:30:27;99778.97;;;10.27;73.99
29359;BME280;16347;53.232;6.556;2023-03-25T04:32:56;99777.22;;;10.35;72.99
29359;BME280;16347;53.232;6.556;2023-03-25T04:35:26;99773.31;;;10.37;73.15
29359;BME280;16347;53.232;6.556;2023-03-25T04:37:54;99779.41;;;10.39;72.69
29359;BME280;16347;53.232;6.556;2023-03-25T04:40:23;99768.00;;;10.44;71.88
29359;BME280;16347;53.232;6.556;2023-03-25T04:42:53;99770.97;;;10.49;71.89
29359;BME280;16347;53.232;6.556;2023-03-25T04:45:23;99761.50;;;10.45;71.98
29359;BME280;16347;53.232;6.556;2023-03-25T04:47:52;99771.41;;;10.60;71.92
29359;BME280;16347;53.232;6.556;2023-03-25T04:50:22;99771.66;;;10.51;72.61
29359;BME280;16347;53.232;6.556;2023-03-25T04:52:52;99780.34;;;10.46;73.32
29359;BME280;16347;53.232;6.556;2023-03-25T04:55:23;99785.34;;;10.57;72.33
29359;BME280;16347;53.232;6.556;2023-03-25T04:57:53;99773.91;;;10.62;72.44
29359;BME280;16347;53.232;6.556;2023-03-25T05:00:23;99780.66;;;10.66;71.03
29359;BME280;16347;53.232;6.556;2023-03-25T05:02:53;99758.03;;;10.36;71.88
29359;BME280;16347;53.232;6.556;2023-03-25T05:05:24;99764.41;;;10.43;71.24
29359;BME280;16347;53.232;6.556;2023-03-25T05:07:53;99755.06;;;10.46;71.11
29359;BME280;16347;53.232;6.556;2023-03-25T05:10:24;99764.00;;;10.32;71.64
29359;BME280;16347;53.232;6.556;2023-03-25T05:13:01;99758.31;;;10.41;70.98
29359;BME280;16347;53.232;6.556;2023-03-25T05:15:31;99772.53;;;10.28;71.45
29359;BME280;16347;53.232;6.556;2023-03-25T05:18:01;99775.91;;;10.31;70.96
29359;BME280;16347;53.232;6.556;2023-03-25T05:20:29;99777.84;;;10.22;71.23
29359;BME280;16347;53.232;6.556;2023-03-25T05:23:00;99778.75;;;10.14;71.58
29359;BME280;16347;53.232;6.556;2023-03-25T05:25:29;99786.09;;;10.14;71.75
29359;BME280;16347;53.232;6.556;2023-03-25T05:28:01;99781.28;;;10.16;71.83
29359;BME280;16347;53.232;6.556;2023-03-25T05:30:31;99789.03;;;10.27;71.13
29359;BME280;16347;53.232;6.556;2023-03-25T05:33:05;99773.75;;;10.26;71.41
29359;BME280;16347;53.232;6.556;2023-03-25T05:35:33;99778.06;;;10.35;70.98
29359;BME280;16347;53.232;6.556;2023-03-25T05:38:02;99779.28;;;10.33;70.81
29359;BME280;16347;53.232;6.556;2023-03-25T05:40:30;99787.69;;;10.23;70.62
29359;BME280;16347;53.232;6.556;2023-03-25T05:43:01;99784.34;;;10.36;70.64
29359;BME280;16347;53.232;6.556;2023-03-25T05:45:29;99776.84;;;10.38;69.98
29359;BME280;16347;53.232;6.556;2023-03-25T05:47:58;99785.31;;;10.43;70.31
29359;BME280;16347;53.232;6.556;2023-03-25T05:50:26;99783.38;;;10.28;70.20
29359;BME280;16347;53.232;6.556;2023-03-25T05:52:55;99795.44;;;10.49;69.70
29359;BME280;16347;53.232;6.556;2023-03-25T05:55:26;99803.25;;;10.29;70.39
29359;BME280;16347;53.232;6.556;2023-03-25T05:57:54;99797.81;;;10.29;69.90
29359;BME280;16347;53.232;6.556;2023-03-25T06:00:26;99807.19;;;10.26;70.33
29359;BME280;16347;53.232;6.556;2023-03-25T06:02:56;99788.19;;;10.41;69.90
29359;BME280;16347;53.232;6.556;2023-03-25T06:05:25;99789.41;;;10.24;69.92
29359;BME280;16347;53.232;6.556;2023-03-25T06:07:55;99789.25;;;10.17;70.29
29359;BME280;16347;53.232;6.556;2023-03-25T06:10:23;99790.38;;;10.46;69.80
29359;BME280;16347;53.232;6.556;2023-03-25T06:12:51;99792.88;;;10.33;69.67
29359;BME280;16347;53.232;6.556;2023-03-25T06:15:20;99793.63;;;10.41;69.60
29359;BME280;16347;53.232;6.556;2023-03-25T06:17:57;99807.09;;;10.57;69.19
29359;BME280;16347;53.232;6.556;2023-03-25T06:20:25;99787.97;;;10.51;68.87
29359;BME280;16347;53.232;6.556;2023-03-25T06:22:53;99779.06;;;10.57;69.10
29359;BME280;16347;53.232;6.556;2023-03-25T06:25:22;99795.47;;;10.26;69.42
29359;BME280;16347;53.232;6.556;2023-03-25T06:27:52;99782.91;;;10.25;69.77
29359;BME280;16347;53.232;6.556;2023-03-25T06:30:22;99782.47;;;10.36;69.35
29359;BME280;16347;53.232;6.556;2023-03-25T06:32:50;99814.66;;;10.47;68.80
29359;BME280;16347;53.232;6.556;2023-03-25T06:35:23;99780.03;;;10.64;69.43
29359;BME280;16347;53.232;6.556;2023-03-25T06:37:52;99779.91;;;10.20;70.26
29359;BME280;16347;53.232;6.556;2023-03-25T06:40:42;99800.00;;;10.34;70.56
29359;BME280;16347;53.232;6.556;2023-03-25T06:43:10;99802.78;;;9.95;71.91
29359;BME280;16347;53.232;6.556;2023-03-25T06:45:59;99793.44;;;9.74;73.19
29359;BME280;16347;53.232;6.556;2023-03-25T06:48:48;99789.03;;;9.73;73.87
29359;BME280;16347;53.232;6.556;2023-03-25T06:51:17;99801.03;;;9.79;73.84
29359;BME280;16347;53.232;6.556;2023-03-25T06:53:47;99801.44;;;9.68;74.32
29359;BME280;16347;53.232;6.556;2023-03-25T06:56:15;99794.16;;;9.91;73.91
29359;BME280;16347;53.232;6.556;2023-03-25T06:58:44;99799.53;;;9.76;73.98
29359;BME280;16347;53.232;6.556;2023-03-25T07:01:12;99797.50;;;9.70;74.02
29359;BME280;16347;53.232;6.556;2023-03-25T07:03:40;99786.19;;;9.67;74.06
29359;BME280;16347;53.232;6.556;2023-03-25T07:06:14;99788.84;;;9.98;73.60
29359;BME280;16347;53.232;6.556;2023-03-25T07:08:44;99804.97;;;9.76;73.05
29359;BME280;16347;53.232;6.556;2023-03-25T07:11:13;99788.63;;;10.07;73.00
29359;BME280;16347;53.232;6.556;2023-03-25T07:13:42;99792.66;;;10.19;72.01
29359;BME280;16347;53.232;6.556;2023-03-25T07:16:10;99783.38;;;10.28;71.73
29359;BME280;16347;53.232;6.556;2023-03-25T07:18:40;99802.16;;;10.38;71.68
29359;BME280;16347;53.232;6.556;2023-03-25T07:21:08;99789.53;;;10.45;70.68
29359;BME280;16347;53.232;6.556;2023-03-25T07:23:36;99800.28;;;10.39;70.81
29359;BME280;16347;53.232;6.556;2023-03-25T07:26:06;99784.41;;;10.27;71.71
29359;BME280;16347;53.232;6.556;2023-03-25T07:28:35;99803.53;;;10.11;72.25
29359;BME280;16347;53.232;6.556;2023-03-25T07:31:05;99798.19;;;10.26;72.63
29359;BME280;16347;53.232;6.556;2023-03-25T07:33:34;99792.81;;;10.18;72.67
29359;BME280;16347;53.232;6.556;2023-03-25T07:36:03;99810.66;;;10.12;72.29
29359;BME280;16347;53.232;6.556;2023-03-25T07:38:33;99810.34;;;10.07;72.47
29359;BME280;16347;53.232;6.556;2023-03-25T07:41:06;99794.50;;;10.19;72.82
29359;BME280;16347;53.232;6.556;2023-03-25T07:43:34;99794.94;;;10.31;72.68
29359;BME280;16347;53.232;6.556;2023-03-25T07:46:25;99797.28;;;10.34;72.63
29359;BME280;16347;53.232;6.556;2023-03-25T07:48:53;99854.34;;;10.03;73.11
29359;BME280;16347;53.232;6.556;2023-03-25T07:51:21;99818.41;;;9.70;73.65
29359;BME280;16347;53.232;6.556;2023-03-25T07:53:50;99796.59;;;9.86;74.62
29359;BME280;16347;53.232;6.556;2023-03-25T07:56:19;99815.34;;;9.73;74.09
29359;BME280;16347;53.232;6.556;2023-03-25T07:58:47;99855.44;;;9.55;74.32
29359;BME280;16347;53.232;6.556;2023-03-25T08:01:15;99818.88;;;9.43;74.99
29359;BME280;16347;53.232;6.556;2023-03-25T08:03:43;99834.25;;;9.50;75.50
29359;BME280;16347;53.232;6.556;2023-03-25T08:06:11;99835.09;;;9.59;75.90
29359;BME280;16347;53.232;6.556;2023-03-25T08:08:39;99821.13;;;9.70;75.80
29359;BME280;16347;53.232;6.556;2023-03-25T08:11:08;99815.00;;;9.99;74.94
29359;BME280;16347;53.232;6.556;2023-03-25T08:13:38;99837.53;;;9.76;74.93
29359;BME280;16347;53.232;6.556;2023-03-25T08:16:10;99814.72;;;9.63;74.57
29359;BME280;16347;53.232;6.556;2023-03-25T08:18:39;99820.06;;;9.71;75.11
29359;BME280;16347;53.232;6.556;2023-03-25T08:21:11;99815.72;;;9.93;75.05
29359;BME280;16347;53.232;6.556;2023-03-25T08:23:39;99826.94;;;9.90;75.12
29359;BME280;16347;53.232;6.556;2023-03-25T08:26:07;99830.16;;;9.62;74.99
29359;BME280;16347;53.232;6.556;2023-03-25T08:28:37;99836.22;;;9.64;75.54
29359;BME280;16347;53.232;6.556;2023-03-25T08:31:06;99830.28;;;9.69;75.29
29359;BME280;16347;53.232;6.556;2023-03-25T08:33:35;99832.13;;;9.76;74.98
29359;BME280;16347;53.232;6.556;2023-03-25T08:36:07;99813.81;;;9.70;75.34
29359;BME280;16347;53.232;6.556;2023-03-25T08:38:36;99829.13;;;9.63;75.07
29359;BME280;16347;53.232;6.556;2023-03-25T08:41:04;99819.66;;;9.59;75.84
29359;BME280;16347;53.232;6.556;2023-03-25T08:43:32;99821.69;;;9.57;75.87
29359;BME280;16347;53.232;6.556;2023-03-25T08:46:02;99819.72;;;9.74;75.42
29359;BME280;16347;53.232;6.556;2023-03-25T08:48:30;99835.84;;;9.75;75.64
29359;BME280;16347;53.232;6.556;2023-03-25T08:50:58;99834.16;;;9.74;75.91
29359;BME280;16347;53.232;6.556;2023-03-25T08:53:27;99830.88;;;9.48;77.19
29359;BME280;16347;53.232;6.556;2023-03-25T08:55:56;99825.47;;;9.48;77.40
29359;BME280;16347;53.232;6.556;2023-03-25T08:58:25;99832.28;;;9.75;76.80
29359;BME280;16347;53.232;6.556;2023-03-25T09:00:54;99824.66;;;10.01;75.76
29359;BME280;16347;53.232;6.556;2023-03-25T09:03:24;99828.09;;;9.95;74.90
29359;BME280;16347;53.232;6.556;2023-03-25T09:05:54;99837.88;;;10.04;75.00
29359;BME280;16347;53.232;6.556;2023-03-25T09:08:23;99831.66;;;9.96;75.17
29359;BME280;16347;53.232;6.556;2023-03-25T09:10:53;99833.41;;;9.80;74.91
29359;BME280;16347;53.232;6.556;2023-03-25T09:13:22;99834.16;;;9.97;75.17
29359;BME280;16347;53.232;6.556;2023-03-25T09:15:50;99827.97;;;10.19;74.51
29359;BME280;16347;53.232;6.556;2023-03-25T09:18:19;99832.34;;;10.43;73.68
29359;BME280;16347;53.232;6.556;2023-03-25T09:20:49;99823.75;;;10.17;73.18
29359;BME280;16347;53.232;6.556;2023-03-25T09:23:17;99827.22;;;10.25;73.30
29359;BME280;16347;53.232;6.556;2023-03-25T09:25:45;99830.53;;;10.36;73.17
29359;BME280;16347;53.232;6.556;2023-03-25T09:28:14;99828.13;;;10.41;72.78
29359;BME280;16347;53.232;6.556;2023-03-25T09:30:43;99826.19;;;10.49;72.01
29359;BME280;16347;53.232;6.556;2023-03-25T09:33:12;99833.72;;;10.62;71.62
29359;BME280;16347;53.232;6.556;2023-03-25T09:35:41;99830.47;;;10.66;71.17
29359;BME280;16347;53.232;6.556;2023-03-25T09:38:10;99867.41;;;10.75;69.72
29359;BME280;16347;53.232;6.556;2023-03-25T09:40:40;99840.44;;;10.89;69.58
29359;BME280;16347;53.232;6.556;2023-03-25T09:43:26;99845.75;;;10.82;69.39
29359;BME280;16347;53.232;6.556;2023-03-25T09:45:56;99844.09;;;10.81;69.60
29359;BME280;16347;53.232;6.556;2023-03-25T09:48:29;99850.28;;;10.90;69.21
29359;BME280;16347;53.232;6.556;2023-03-25T09:51:02;99844.88;;;11.04;68.86
29359;BME280;16347;53.232;6.556;2023-03-25T09:53:36;99849.94;;;11.07;68.09
29359;BME280;16347;53.232;6.556;2023-03-25T09:56:12;99860.41;;;10.96;67.76
29359;BME280;16347;53.232;6.556;2023-03-25T09:58:43;99853.38;;;11.01;67.76
29359;BME280;16347;53.232;6.556;2023-03-25T10:01:29;99838.66;;;10.96;68.30
29359;BME280;16347;53.232;6.556;2023-03-25T10:04:20;99851.59;;;11.08;68.52
29359;BME280;16347;53.232;6.556;2023-03-25T10:07:00;99859.47;;;10.89;68.87
29359;BME280;16347;53.232;6.556;2023-03-25T10:09:48;99859.38;;;11.11;69.37
29359;BME280;16347;53.232;6.556;2023-03-25T10:12:29;99857.69;;;10.81;69.14
29359;BME280;16347;53.232;6.556;2023-03-25T10:15:11;99874.00;;;10.81;70.38
29359;BME280;16347;53.232;6.556;2023-03-25T10:17:52;99871.94;;;10.83;69.46
29359;BME280;16347;53.232;6.556;2023-03-25T10:20:34;99870.34;;;10.89;69.67
29359;BME280;16347;53.232;6.556;2023-03-25T10:23:14;99865.47;;;10.61;70.51
29359;BME280;16347;53.232;6.556;2023-03-25T10:25:49;99863.19;;;10.73;71.75
29359;BME280;16347;53.232;6.556;2023-03-25T10:28:27;99868.09;;;10.92;72.03
29359;BME280;16347;53.232;6.556;2023-03-25T10:30:56;99872.03;;;10.90;71.32
29359;BME280;16347;53.232;6.556;2023-03-25T10:33:31;99889.78;;;11.15;71.38
29359;BME280;16347;53.232;6.556;2023-03-25T10:36:03;99861.84;;;10.69;70.86
29359;BME280;16347;53.232;6.556;2023-03-25T10:38:35;99861.59;;;10.78;70.24
29359;BME280;16347;53.232;6.556;2023-03-25T10:41:15;99875.03;;;10.80;69.37
29359;BME280;16347;53.232;6.556;2023-03-25T10:43:47;99863.78;;;10.83;69.77
29359;BME280;16347;53.232;6.556;2023-03-25T10:46:24;99863.84;;;10.75;69.54
29359;BME280;16347;53.232;6.556;2023-03-25T10:48:54;99887.88;;;10.86;68.71
29359;BME280;16347;53.232;6.556;2023-03-25T10:51:25;99870.44;;;10.95;69.29
29359;BME280;16347;53.232;6.556;2023-03-25T10:53:55;99883.09;;;10.88;69.20
29359;BME280;16347;53.232;6.556;2023-03-25T10:56:28;99871.28;;;10.81;69.51
29359;BME280;16347;53.232;6.556;2023-03-25T10:59:02;99897.16;;;10.92;68.71
29359;BME280;16347;53.232;6.556;2023-03-25T11:01:35;99887.13;;;10.92;68.91
29359;BME280;16347;53.232;6.556;2023-03-25T11:04:07;99886.22;;;11.00;68.76
29359;BME280;16347;53.232;6.556;2023-03-25T11:06:38;99878.91;;;11.00;68.77
29359;BME280;16347;53.232;6.556;2023-03-25T11:09:13;99888.84;;;10.93;67.72
29359;BME280;16347;53.232;6.556;2023-03-25T11:11:46;99883.88;;;10.97;67.50
29359;BME280;16347;53.232;6.556;2023-03-25T11:14:21;99873.38;;;10.94;67.26
29359;BME280;16347;53.232;6.556;2023-03-25T11:16:54;99864.66;;;11.13;67.82
29359;BME280;16347;53.232;6.556;2023-03-25T11:19:25;99863.44;;;11.59;66.98
29359;BME280;16347;53.232;6.556;2023-03-25T11:21:57;99870.69;;;11.23;65.70
29359;BME280;16347;53.232;6.556;2023-03-25T11:24:31;99872.53;;;11.22;65.95
29359;BME280;16347;53.232;6.556;2023-03-25T11:27:06;99880.91;;;11.21;65.43
29359;BME280;16347;53.232;6.556;2023-03-25T11:29:35;99876.03;;;11.16;65.40
29359;BME280;16347;53.232;6.556;2023-03-25T11:32:07;99866.81;;;11.32;64.61
29359;BME280;16347;53.232;6.556;2023-03-25T11:34:46;99871.31;;;11.25;64.36
29359;BME280;16347;53.232;6.556;2023-03-25T11:37:16;99880.81;;;11.14;65.60
29359;BME280;16347;53.232;6.556;2023-03-25T11:39:49;99894.47;;;11.06;65.26
29359;BME280;16347;53.232;6.556;2023-03-25T11:42:29;99877.34;;;11.20;66.66
29359;BME280;16347;53.232;6.556;2023-03-25T11:45:00;99879.69;;;11.23;64.74
29359;BME280;16347;53.232;6.556;2023-03-25T11:47:31;99877.44;;;11.42;64.34
29359;BME280;16347;53.232;6.556;2023-03-25T11:50:00;99882.88;;;11.27;63.31
29359;BME280;16347;53.232;6.556;2023-03-25T11:52:37;99865.88;;;11.10;63.07
29359;BME280;16347;53.232;6.556;2023-03-25T11:55:14;99871.91;;;11.20;64.10
29359;BME280;16347;53.232;6.556;2023-03-25T11:57:45;99862.13;;;11.55;63.99
29359;BME280;16347;53.232;6.556;2023-03-25T12:00:29;99874.63;;;11.79;63.74
29359;BME280;16347;53.232;6.556;2023-03-25T12:02:58;99848.34;;;11.57;62.79
29359;BME280;16347;53.232;6.556;2023-03-25T12:05:27;99856.88;;;11.54;62.84
29359;BME280;16347;53.232;6.556;2023-03-25T12:08:03;99842.88;;;11.86;62.63
29359;BME280;16347;53.232;6.556;2023-03-25T12:10:51;99857.06;;;11.67;62.91
29359;BME280;16347;53.232;6.556;2023-03-25T12:13:34;99868.63;;;11.83;62.69
29359;BME280;16347;53.232;6.556;2023-03-25T12:16:16;99845.63;;;11.57;62.32
29359;BME280;16347;53.232;6.556;2023-03-25T12:19:00;99854.63;;;11.72;62.26
29359;BME280;16347;53.232;6.556;2023-03-25T12:21:38;99840.06;;;11.79;61.52
29359;BME280;16347;53.232;6.556;2023-03-25T12:24:17;99839.38;;;11.92;61.09
29359;BME280;16347;53.232;6.556;2023-03-25T12:26:55;99834.97;;;11.62;61.70
29359;BME280;16347;53.232;6.556;2023-03-25T12:29:35;99841.50;;;11.46;61.80
29359;BME280;16347;53.232;6.556;2023-03-25T12:32:16;99849.84;;;11.30;62.45
29359;BME280;16347;53.232;6.556;2023-03-25T12:34:59;99838.88;;;11.38;62.82
29359;BME280;16347;53.232;6.556;2023-03-25T12:37:34;99841.84;;;11.72;61.51
29359;BME280;16347;53.232;6.556;2023-03-25T12:40:22;99864.75;;;11.49;61.22
29359;BME280;16347;53.232;6.556;2023-03-25T12:42:57;99853.31;;;11.39;60.23
29359;BME280;16347;53.232;6.556;2023-03-25T12:45:42;99853.41;;;11.30;60.95
29359;BME280;16347;53.232;6.556;2023-03-25T12:48:37;99851.34;;;11.47;60.70
29359;BME280;16347;53.232;6.556;2023-03-25T12:51:16;99862.16;;;11.41;61.61
29359;BME280;16347;53.232;6.556;2023-03-25T12:53:56;99844.22;;;11.61;62.22
29359;BME280;16347;53.232;6.556;2023-03-25T12:56:43;99835.97;;;11.40;62.74
29359;BME280;16347;53.232;6.556;2023-03-25T12:59:28;99834.09;;;11.40;63.49
29359;BME280;16347;53.232;6.556;2023-03-25T13:02:13;99829.97;;;11.44;64.68
29359;BME280;16347;53.232;6.556;2023-03-25T13:04:57;99842.41;;;11.82;64.40
29359;BME280;16347;53.232;6.556;2023-03-25T13:07:33;99848.16;;;11.14;67.80
29359;BME280;16347;53.232;6.556;2023-03-25T13:10:10;99854.31;;;10.94;69.09
29359;BME280;16347;53.232;6.556;2023-03-25T13:12:45;99840.91;;;10.92;69.63
29359;BME280;16347;53.232;6.556;2023-03-25T13:15:15;99841.69;;;11.01;70.36
29359;BME280;16347;53.232;6.556;2023-03-25T13:17:56;99847.69;;;11.11;70.74
29359;BME280;16347;53.232;6.556;2023-03-25T13:20:29;99860.84;;;10.85;69.96
29359;BME280;16347;53.232;6.556;2023-03-25T13:23:00;99867.56;;;10.59;70.65
29359;BME280;16347;53.232;6.556;2023-03-25T13:25:45;99851.66;;;10.71;70.09
29359;BME280;16347;53.232;6.556;2023-03-25T13:28:17;99867.03;;;10.78;70.37
29359;BME280;16347;53.232;6.556;2023-03-25T13:30:49;99868.00;;;10.86;71.64
29359;BME280;16347;53.232;6.556;2023-03-25T13:33:22;99837.16;;;10.93;72.13
29359;BME280;16347;53.232;6.556;2023-03-25T13:35:55;99837.91;;;10.87;72.42
29359;BME280;16347;53.232;6.556;2023-03-25T13:38:30;99844.91;;;10.81;72.64